Freelandville, Indiana
Current Conditions -  °F | °C
As of 7:15 AM on Monday 22 Dec 2014 (Local Time) from KDCY Reporting Station
Overcast Overcast  
Wind Chill: 31°   Ceiling: 2400
Heat Index: 36°   Visibility: 10mi
Dew Point: 32°   Wind: 6mph
Humidity: 85%   Direction: 120°ESE
Pressure: 29.91"   Gusts: NA
Location:  38.86°N, 87.31°W
Report Text: KDCY 221315Z AUTO 12005KT 10SM BKN024 OVC030 02/00 A2991 RMK AO2 T00201002
Loading
Personal Weather Stations






























Interactive Weather Map New forecast layout! Learn more

10-Day Weather Forecast

Advertisements
Track Severe Weather on mobile